Time;durP1;ratioP1;P1;durP2;ratioP2;P2;SDS_P1;SDS_P2;PMS_P1;PMS_P2;Temp;Humidity;BMP_temperature;BMP_pressure;BME280_temperature;BME280_humidity;BME280_pressure;Samples;Min_cycle;Max_cycle;Signal;HPM_P1;HPM_P2
2022/09/05 06:12:15;;;;;;;7.15;4.47;;;20.60;63.40;;;;;;6122914;23;20037;-75
2022/09/05 06:15:02;;;;;;;;;;;20.60;63.30;;;;;;6128061;23;20036;-78
2022/09/05 06:17:34;;;;;;;6.07;4.70;;;20.50;63.20;;;;;;6127296;23;19923;-77
2022/09/05 06:20:19;;;;;;;5.00;4.40;;;20.60;63.30;;;;;;6127861;23;20445;-78
2022/09/05 06:23:26;;;;;;;6.28;5.40;;;20.60;63.20;;;;;;6127593;23;20456;-77
2022/09/05 06:26:41;;;;;;;5.55;5.05;;;20.60;62.90;;;;;;6093571;23;20018;-77
2022/09/05 06:29:11;;;;;;;5.10;4.60;;;20.50;63.00;;;;;;6117899;23;20029;-78
2022/09/05 06:32:02;;;;;;;6.78;4.25;;;20.50;63.20;;;;;;6156951;23;20017;-79
2022/09/05 06:34:58;;;;;;;5.85;4.38;;;20.60;63.20;;;;;;6157291;23;20024;-78
2022/09/05 06:37:54;;;;;;;9.25;5.10;;;20.60;63.30;;;;;;6157622;23;20013;-78
2022/09/05 06:40:40;;;;;;;14.25;4.90;;;20.60;63.40;;;;;;6157622;23;20022;-77
2022/09/05 06:43:30;;;;;;;6.20;3.83;;;20.60;63.40;;;;;;6156620;23;20025;-77
2022/09/05 06:46:34;;;;;;;7.15;4.05;;;20.70;63.60;;;;;;6157696;23;20064;-78
2022/09/05 06:49:20;;;;;;;10.23;4.30;;;20.70;63.50;;;;;;6115141;23;20021;-79
2022/09/05 06:52:14;;;;;;;7.00;3.75;;;20.70;63.40;;;;;;6158890;23;20105;-78
2022/09/05 06:55:09;;;;;;;8.23;4.07;;;20.80;63.40;;;;;;6158167;23;20374;-79
2022/09/05 06:57:58;;;;;;;6.10;4.78;;;20.90;63.20;;;;;;6158834;23;20508;-79
2022/09/05 07:00:44;;;;;;;8.82;5.32;;;20.80;63.40;;;;;;6143343;23;20048;-75
2022/09/05 07:03:46;;;;;;;6.15;4.97;;;20.80;63.50;;;;;;6159373;23;20385;-81
2022/09/05 07:06:25;;;;;;;5.10;4.60;;;20.90;63.50;;;;;;6158129;23;20092;-76
2022/09/05 07:09:09;;;;;;;7.18;4.97;;;20.90;63.60;;;;;;6158051;23;20017;-78
2022/09/05 07:11:40;;;;;;;7.53;5.15;;;20.90;63.60;;;;;;6154606;23;20021;-79
2022/09/05 07:14:19;;;;;;;5.75;4.47;;;20.90;63.70;;;;;;6159975;23;20017;-76
2022/09/05 07:17:30;;;;;;;9.52;4.47;;;20.90;63.80;;;;;;6158979;23;20021;-79
2022/09/05 07:19:59;;;;;;;7.15;4.25;;;21.00;63.80;;;;;;6159266;23;20014;-79
2022/09/05 07:22:38;;;;;;;6.95;5.35;;;21.00;63.90;;;;;;6159292;23;20315;-78
2022/09/05 07:25:07;;;;;;;5.32;4.80;;;21.00;63.90;;;;;;6158847;23;20021;-80
2022/09/05 07:27:43;;;;;;;5.95;4.60;;;21.00;63.80;;;;;;6159044;23;20013;-78
2022/09/05 07:30:10;;;;;;;6.38;4.35;;;21.00;63.90;;;;;;6109223;23;20414;-79
2022/09/05 07:32:47;;;;;;;5.80;4.07;;;21.00;64.00;;;;;;6159897;23;20338;-79
2022/09/05 07:35:20;;;;;;;8.00;4.32;;;21.10;64.20;;;;;;6159528;23;20017;-80
2022/09/05 07:38:03;;;;;;;5.35;4.03;;;21.10;64.30;;;;;;6158814;23;20021;-80
2022/09/05 07:40:34;;;;;;;5.28;3.60;;;21.10;64.30;;;;;;6159192;23;20014;-78
2022/09/05 07:43:06;;;;;;;4.28;3.28;;;21.20;64.40;;;;;;6159223;23;20315;-77
2022/09/05 07:45:36;;;;;;;4.18;3.67;;;21.20;64.50;;;;;;6133514;23;20021;-78
2022/09/05 07:48:16;;;;;;;4.18;3.30;;;21.20;64.60;;;;;;6132914;23;20018;-77
2022/09/05 07:51:01;;;;;;;4.35;3.42;;;21.30;64.70;;;;;;6159048;23;20074;-78
2022/09/05 07:53:29;;;;;;;4.65;3.30;;;21.30;64.70;;;;;;6159042;23;20084;-79
2022/09/05 07:56:01;;;;;;;5.28;3.30;;;21.30;64.70;;;;;;6133441;23;20052;-79
2022/09/05 07:58:49;;;;;;;4.63;3.20;;;21.30;64.80;;;;;;6158543;23;20418;-79
2022/09/05 08:01:18;;;;;;;4.95;3.25;;;21.30;64.70;;;;;;6157770;23;20097;-78
2022/09/05 08:03:44;;;;;;;4.18;3.10;;;21.30;64.70;;;;;;6159038;23;20279;-78
2022/09/05 08:06:22;;;;;;;6.80;3.20;;;21.40;64.70;;;;;;6158275;23;20028;-80
2022/09/05 08:09:08;;;;;;;6.65;3.75;;;21.40;64.60;;;;;;6158973;23;20068;-79
2022/09/05 08:11:35;;;;;;;5.43;2.80;;;21.40;64.50;;;;;;6158294;23;20025;-78
2022/09/05 08:14:15;;;;;;;4.82;3.38;;;21.40;64.60;;;;;;6157794;23;20053;-79
2022/09/05 08:16:41;;;;;;;5.20;3.28;;;21.40;64.40;;;;;;6132480;23;20025;-79
2022/09/05 08:19:26;;;;;;;4.32;3.60;;;21.40;64.30;;;;;;6158766;23;20421;-81
2022/09/05 08:22:19;;;;;;;5.25;4.47;;;21.50;64.40;;;;;;6134246;23;20014;-90
2022/09/05 08:25:00;;;;;;;4.32;3.35;;;21.50;64.70;;;;;;6108508;23;20414;-79
2022/09/05 08:27:35;;;;;;;4.78;3.55;;;21.50;64.70;;;;;;6158838;23;20009;-79
2022/09/05 08:30:06;;;;;;;7.43;5.28;;;21.50;64.60;;;;;;6158433;23;20076;-79
2022/09/05 08:32:57;;;;;;;6.88;4.47;;;21.50;65.10;;;;;;6157027;23;20084;-77
2022/09/05 08:35:38;;;;;;;10.40;5.00;;;21.50;65.30;;;;;;6158637;23;20005;-76
2022/09/05 08:38:06;;;;;;;5.38;3.75;;;21.60;65.70;;;;;;6158430;23;20029;-78
2022/09/05 08:40:40;;;;;;;5.53;3.45;;;21.60;65.50;;;;;;6158126;23;20437;-78
2022/09/05 08:43:21;;;;;;;6.78;3.83;;;21.60;65.40;;;;;;6158220;23;20028;-79
2022/09/05 08:45:56;;;;;;;4.97;3.13;;;21.70;65.40;;;;;;6156867;23;20083;-78
2022/09/05 08:48:40;;;;;;;9.18;4.03;;;21.70;65.40;;;;;;6158500;23;20096;-75
2022/09/05 08:51:25;;;;;;;5.85;3.92;;;21.70;65.30;;;;;;6158518;23;20017;-79
2022/09/05 08:54:08;;;;;;;6.57;3.10;;;21.70;65.30;;;;;;6132543;23;20414;-77
2022/09/05 08:56:48;;;;;;;5.10;3.70;;;21.70;65.20;;;;;;6158042;23;20093;-79
2022/09/05 08:59:26;;;;;;;7.18;3.20;;;21.80;65.30;;;;;;6159494;23;20127;-78
2022/09/05 09:02:10;;;;;;;5.28;3.50;;;21.80;65.40;;;;;;6132691;23;20276;-78
2022/09/05 09:04:39;;;;;;;;;;;21.80;65.40;;;;;;6132857;23;20025;-73
2022/09/05 09:07:30;;;;;;;5.88;3.33;;;21.80;65.30;;;;;;6157764;23;20309;-77
2022/09/05 09:10:35;;;;;;;10.35;3.70;;;21.80;65.40;;;;;;6158610;23;20029;-78
2022/09/05 09:13:29;;;;;;;3.85;3.45;;;21.80;65.30;;;;;;6151955;23;20034;-77
2022/09/05 09:16:26;;;;;;;4.93;3.28;;;21.90;65.40;;;;;;6128903;23;20068;-78
2022/09/05 09:18:52;;;;;;;3.95;3.15;;;21.90;65.30;;;;;;6128573;23;20316;-78
2022/09/05 09:21:29;;;;;;;5.32;2.90;;;21.90;65.30;;;;;;6128739;23;20081;-79
2022/09/05 09:24:10;;;;;;;4.35;2.80;;;21.90;65.20;;;;;;6128929;23;20030;-79
2022/09/05 09:26:56;;;;;;;5.32;3.17;;;21.90;65.20;;;;;;6129010;23;20018;-78
2022/09/05 09:29:23;;;;;;;3.60;2.60;;;21.90;65.20;;;;;;6128564;23;20014;-80
2022/09/05 09:32:03;;;;;;;6.40;2.85;;;22.00;65.20;;;;;;6128731;23;20088;-77
2022/09/05 09:34:55;;;;;;;3.53;2.83;;;22.00;65.20;;;;;;6151365;23;20475;-76
2022/09/05 09:37:33;;;;;;;6.03;3.17;;;22.00;65.30;;;;;;6123587;23;20018;-78
2022/09/05 09:40:30;;;;;;;3.70;2.60;;;22.00;65.40;;;;;;6151438;23;20021;-78
2022/09/05 09:43:26;;;;;;;5.63;2.92;;;22.00;65.40;;;;;;6128779;23;20022;-79
2022/09/05 09:46:18;;;;;;;5.05;2.92;;;22.00;65.30;;;;;;6128624;23;20053;-78
2022/09/05 09:48:58;;;;;;;4.43;2.90;;;22.00;65.90;;;;;;6128286;23;20322;-76
2022/09/05 09:51:56;;;;;;;3.55;2.95;;;22.10;65.20;;;;;;6151622;23;20362;-76
2022/09/05 09:54:31;;;;;;;5.22;3.15;;;22.10;65.50;;;;;;6151745;23;20106;-77
2022/09/05 09:57:02;;;;;;;3.40;3.00;;;22.10;65.70;;;;;;6128137;23;20045;-77
2022/09/05 10:00:03;;;;;;;3.63;2.78;;;22.10;66.40;;;;;;6128132;23;20022;-78
2022/09/05 10:02:35;;;;;;;5.88;3.25;;;22.10;65.70;;;;;;6127679;23;20014;-77
2022/09/05 10:05:19;;;;;;;4.03;3.10;;;22.10;65.70;;;;;;6127688;23;20053;-77
2022/09/05 10:07:51;;;;;;;5.75;3.15;;;22.20;65.90;;;;;;6127840;23;20064;-77
2022/09/05 10:10:54;;;;;;;4.38;2.35;;;22.20;65.80;;;;;;6128279;23;20018;-76
2022/09/05 10:13:25;;;;;;;3.90;2.95;;;22.20;65.90;;;;;;6127804;23;20327;-76
2022/09/05 10:16:18;;;;;;;4.28;3.00;;;22.20;65.90;;;;;;6128276;23;20080;-77
2022/09/05 10:18:53;;;;;;;4.85;3.17;;;22.20;65.90;;;;;;6128013;23;20101;-77
2022/09/05 10:21:39;;;;;;;3.88;2.95;;;22.20;65.80;;;;;;6128207;23;20065;-77
2022/09/05 10:24:25;;;;;;;6.38;3.28;;;22.30;65.70;;;;;;6128182;23;20449;-76
2022/09/05 10:27:14;;;;;;;4.88;3.42;;;22.30;65.80;;;;;;6129648;23;20451;-77
2022/09/05 10:30:09;;;;;;;6.68;3.25;;;22.30;66.30;;;;;;6130437;23;20029;-77
2022/09/05 10:33:02;;;;;;;7.63;3.17;;;22.40;65.70;;;;;;6130108;23;20335;-80
2022/09/05 10:35:34;;;;;;;4.03;3.25;;;22.40;65.70;;;;;;6130125;23;20022;-79
2022/09/05 10:38:10;;;;;;;6.25;3.10;;;22.40;65.60;;;;;;6129911;23;20014;-79
2022/09/05 10:40:39;;;;;;;4.80;3.13;;;22.40;65.60;;;;;;6130085;23;20057;-80
2022/09/05 10:43:08;;;;;;;3.80;3.00;;;22.40;65.70;;;;;;6130250;23;20026;-80
2022/09/05 10:45:52;;;;;;;3.65;3.13;;;22.40;65.70;;;;;;6129793;23;20022;-80
2022/09/05 10:48:26;;;;;;;;;;;22.40;65.60;;;;;;6129199;23;20026;-78
2022/09/05 10:51:05;;;;;;;3.70;2.67;;;22.30;65.40;;;;;;6130548;23;19917;-79
2022/09/05 10:53:48;;;;;;;3.95;3.00;;;22.40;65.60;;;;;;6128661;23;20028;-79
2022/09/05 10:56:24;;;;;;;5.13;3.00;;;22.30;65.50;;;;;;6130074;23;20100;-81
2022/09/05 10:59:00;;;;;;;2.83;2.63;;;22.30;65.50;;;;;;6130702;23;20021;-80
2022/09/05 11:01:48;;;;;;;3.85;2.72;;;22.30;65.40;;;;;;6104671;23;20022;-78
2022/09/05 11:04:42;;;;;;;3.45;2.58;;;22.30;65.30;;;;;;6128663;23;20021;-80
2022/09/05 11:07:14;;;;;;;2.78;2.47;;;22.30;65.30;;;;;;6128802;23;20419;-78
2022/09/05 11:09:58;;;;;;;2.67;2.17;;;22.40;65.40;;;;;;6129697;23;20022;-78
2022/09/05 11:12:53;;;;;;;2.90;2.60;;;22.30;65.30;;;;;;6147761;23;20319;-79
2022/09/05 11:15:35;;;;;;;2.65;2.35;;;22.30;65.30;;;;;;6134139;23;20326;-79
2022/09/05 11:18:23;;;;;;;2.47;2.28;;;22.30;65.30;;;;;;6133078;23;20136;-80
2022/09/05 11:21:07;;;;;;;3.90;2.53;;;22.40;65.30;;;;;;6158039;23;20028;-80
2022/09/05 11:23:45;;;;;;;4.72;2.50;;;22.40;65.20;;;;;;6158931;23;20056;-79
2022/09/05 11:26:29;;;;;;;8.05;3.08;;;22.40;65.10;;;;;;6158911;23;20100;-80
2022/09/05 11:29:07;;;;;;;3.50;2.67;;;22.40;65.10;;;;;;6158400;23;20414;-79
2022/09/05 11:32:04;;;;;;;6.20;3.25;;;22.40;65.10;;;;;;6159323;23;20017;-78
2022/09/05 11:35:05;;;;;;;3.47;2.72;;;22.40;65.10;;;;;;6133574;23;20024;-79
2022/09/05 11:38:02;;;;;;;6.13;2.70;;;22.40;65.00;;;;;;6158451;23;20024;-80
2022/09/05 11:40:27;;;;;;;3.45;3.03;;;22.40;65.00;;;;;;6132062;23;20496;-79
2022/09/05 11:43:08;;;;;;;3.28;2.80;;;22.50;64.80;;;;;;6158275;23;20041;-79
2022/09/05 11:46:13;;;;;;;3.75;2.63;;;22.50;64.80;;;;;;6157283;23;20037;-80
2022/09/05 11:48:42;;;;;;;5.25;3.38;;;22.50;64.90;;;;;;6158954;23;20060;-81
2022/09/05 11:51:07;;;;;;;5.78;3.17;;;22.50;65.10;;;;;;6157473;23;20017;-81
2022/09/05 11:54:17;;;;;;;5.55;3.17;;;22.50;65.20;;;;;;6108804;23;20024;-84
2022/09/05 12:45:46;;;;;;;7.25;2.88;;;22.60;65.50;;;;;;6212154;23;20066;-79
2022/09/05 12:48:21;;;;;;;5.30;2.40;;;22.70;65.00;;;;;;6248356;23;20043;-78
2022/09/05 12:51:01;;;;;;;6.93;2.47;;;22.70;65.00;;;;;;6248740;23;20310;-81
2022/09/05 12:53:41;;;;;;;8.20;2.28;;;22.70;65.00;;;;;;6248630;23;20012;-79
2022/09/05 12:56:28;;;;;;;2.63;1.95;;;22.70;65.10;;;;;;6249512;23;20016;-78
2022/09/05 12:58:55;;;;;;;4.43;2.25;;;22.70;65.10;;;;;;6186770;23;20027;-80
2022/09/05 13:01:40;;;;;;;2.97;1.92;;;22.70;64.90;;;;;;6222454;23;20027;-79
2022/09/05 13:04:23;;;;;;;5.07;2.53;;;22.70;64.80;;;;;;6222209;23;20024;-80
2022/09/05 13:07:08;;;;;;;4.72;2.78;;;22.80;64.50;;;;;;6222494;23;20082;-80
2022/09/05 13:09:42;;;;;;;3.22;2.33;;;22.70;64.60;;;;;;6248402;23;20016;-79
2022/09/05 13:12:28;;;;;;;3.92;2.20;;;22.80;64.70;;;;;;6248148;23;20020;-78
2022/09/05 13:15:04;;;;;;;2.10;1.85;;;22.80;64.60;;;;;;6222804;23;20020;-81
2022/09/05 13:17:52;;;;;;;2.30;1.90;;;22.70;64.60;;;;;;6222040;23;20423;-80
2022/09/05 13:20:21;;;;;;;2.80;2.00;;;22.80;64.70;;;;;;6221662;23;20016;-80
2022/09/05 13:22:49;;;;;;;2.75;2.03;;;22.80;64.60;;;;;;6248374;23;20095;-81
2022/09/05 13:25:23;;;;;;;3.00;2.10;;;22.80;64.20;;;;;;6222218;23;20027;-81
2022/09/05 13:28:00;;;;;;;3.28;2.00;;;22.80;64.30;;;;;;6222292;23;20020;-80
2022/09/05 13:30:27;;;;;;;2.10;1.90;;;22.80;64.40;;;;;;6196868;23;20020;-81
2022/09/05 13:32:57;;;;;;;4.65;2.00;;;22.80;64.50;;;;;;6248225;23;20313;-76
2022/09/05 13:35:27;;;;;;;2.95;1.92;;;22.80;64.50;;;;;;6247193;23;20020;-78
2022/09/05 13:38:05;;;;;;;4.57;2.08;;;22.80;64.10;;;;;;6220283;23;20420;-78
2022/09/05 13:40:40;;;;;;;3.08;1.90;;;22.80;62.70;;;;;;6248089;23;20034;-77
2022/09/05 13:43:23;;;;;;;3.03;1.90;;;22.90;62.70;;;;;;6247065;23;20397;-77
2022/09/05 13:46:06;;;;;;;5.03;2.10;;;22.90;61.30;;;;;;6247122;23;20417;-78
2022/09/05 13:48:54;;;;;;;3.20;1.88;;;23.00;61.60;;;;;;6248315;23;20348;-78
2022/09/05 13:51:43;;;;;;;3.33;1.30;;;23.00;62.30;;;;;;6247415;23;20487;-78
2022/09/05 13:54:40;;;;;;;1.90;1.67;;;23.10;61.10;;;;;;6247823;23;20062;-79
2022/09/05 13:57:20;;;;;;;8.63;1.60;;;23.10;62.80;;;;;;6247992;23;20099;-79
2022/09/05 14:00:26;;;;;;;3.03;1.52;;;23.10;61.30;;;;;;6220796;23;20125;-77
2022/09/05 14:03:32;;;;;;;1.35;1.25;;;23.10;62.50;;;;;;6188051;23;20162;-78
2022/09/05 14:06:07;;;;;;;6.30;1.70;;;23.20;59.50;;;;;;6247881;23;20083;-78
2022/09/05 14:08:39;;;;;;;3.83;1.30;;;23.20;59.60;;;;;;6247680;23;20024;-81
2022/09/05 14:11:42;;;;;;;4.82;1.45;;;23.20;60.60;;;;;;6221257;23;20013;-78
2022/09/05 14:14:16;;;;;;;6.55;1.90;;;23.30;59.40;;;;;;6246939;23;20031;-79
2022/09/05 14:16:51;;;;;;;2.78;1.65;;;23.30;59.50;;;;;;6247802;23;20026;-79
2022/09/05 14:22:09;;;;;;;6.82;1.85;;;23.40;58.30;;;;;;6248667;23;20056;-76
2022/09/05 14:24:40;;;;;;;4.57;1.77;;;23.40;57.30;;;;;;6247768;23;20016;-74
2022/09/05 14:27:14;;;;;;;4.97;1.70;;;23.40;57.00;;;;;;6248246;23;20056;-77
2022/09/05 14:29:52;;;;;;;4.85;1.92;;;23.40;59.00;;;;;;6248073;23;20004;-79
2022/09/05 14:32:18;;;;;;;2.85;1.52;;;23.40;59.30;;;;;;6248009;23;20016;-77
2022/09/05 14:35:02;;;;;;;2.90;1.42;;;23.40;58.50;;;;;;6247857;23;20371;-79
2022/09/05 14:37:49;;;;;;;2.45;1.33;;;23.40;59.20;;;;;;6247947;23;20316;-82
2022/09/05 14:40:33;;;;;;;3.00;1.40;;;23.50;58.10;;;;;;6196246;23;20015;-80
2022/09/05 14:43:14;;;;;;;2.70;1.35;;;23.50;58.10;;;;;;6196099;23;20400;-81
2022/09/05 14:45:58;;;;;;;2.15;1.30;;;23.50;58.80;;;;;;6221150;22;20464;-84
2022/09/05 14:48:44;;;;;;;3.08;1.73;;;23.50;59.90;;;;;;6221098;23;20019;-83
2022/09/05 14:51:40;;;;;;;2.78;1.40;;;23.50;60.00;;;;;;6221197;23;20095;-81
2022/09/05 14:54:23;;;;;;;4.07;1.13;;;23.60;60.20;;;;;;6196545;23;20020;-81
2022/09/05 14:56:51;;;;;;;3.58;1.30;;;23.60;60.00;;;;;;6196004;23;20016;-83
2022/09/05 14:59:19;;;;;;;3.58;1.15;;;23.60;59.20;;;;;;6247872;23;20008;-82
2022/09/05 15:02:15;;;;;;;3.33;1.30;;;23.60;57.80;;;;;;6196909;23;20055;-83
2022/09/05 15:05:08;;;;;;;3.92;1.33;;;23.60;59.00;;;;;;6221508;23;20089;-83
2022/09/05 15:07:37;;;;;;;5.43;1.20;;;23.60;59.20;;;;;;6221537;23;20073;-84
2022/09/05 15:10:15;;;;;;;1.42;1.10;;;23.60;57.70;;;;;;6221981;23;20012;-82
2022/09/05 15:12:59;;;;;;;3.67;0.90;;;23.60;58.70;;;;;;6198084;23;20012;-82
2022/09/05 15:15:37;;;;;;;2.50;1.13;;;23.60;57.90;;;;;;6249606;23;20023;-83
2022/09/05 15:18:13;;;;;;;2.35;1.00;;;23.60;57.80;;;;;;6224253;23;20096;-83
2022/09/05 15:20:42;;;;;;;2.17;1.17;;;23.60;57.20;;;;;;6223339;23;20019;-81
2022/09/05 16:14:37;;;;;;;6.20;1.50;;;23.70;63.10;;;;;;6191774;22;20091;-74
2022/09/05 16:17:04;;;;;;;5.88;1.67;;;23.70;63.00;;;;;;6218871;23;20024;-75
2022/09/05 16:19:46;;;;;;;3.67;1.15;;;23.80;62.80;;;;;;6219089;23;20033;-77
2022/09/05 16:22:23;;;;;;;3.50;1.45;;;23.80;62.70;;;;;;6216431;23;20016;-75
2022/09/05 16:24:57;;;;;;;3.20;1.30;;;23.80;62.70;;;;;;6216143;23;20082;-76
2022/09/05 16:27:58;;;;;;;1.90;1.00;;;23.80;62.90;;;;;;6191842;23;20032;-77
2022/09/05 16:30:35;;;;;;;3.40;1.08;;;23.80;63.30;;;;;;6217312;23;20060;-76
2022/09/05 16:33:12;;;;;;;2.35;1.38;;;23.80;63.30;;;;;;6219656;23;20020;-76
2022/09/05 16:35:47;;;;;;;2.33;1.00;;;23.70;63.30;;;;;;6218580;23;20357;-76
2022/09/05 18:58:23;;;;;;;4.60;4.10;;;22.90;67.20;;;;;;6195309;23;20456;-77
2022/09/05 19:00:50;;;;;;;8.00;4.55;;;22.90;67.50;;;;;;6219164;23;20290;-78
2022/09/05 19:03:30;;;;;;;9.30;3.95;;;22.90;67.60;;;;;;6218915;23;20100;-79
2022/09/05 19:06:08;;;;;;;6.47;4.18;;;22.90;67.80;;;;;;6219346;23;20056;-75
2022/09/05 19:08:51;;;;;;;5.63;3.70;;;22.80;67.70;;;;;;6219968;23;20027;-75
2022/09/05 19:11:36;;;;;;;5.40;4.37;;;22.80;67.60;;;;;;6219110;23;20035;-77
2022/09/05 19:14:15;;;;;;;6.13;3.97;;;22.80;67.80;;;;;;6219350;23;20027;-76
2022/09/05 19:16:42;;;;;;;4.28;3.88;;;22.80;67.80;;;;;;6219202;23;20305;-77
2022/09/05 19:19:08;;;;;;;5.43;4.05;;;22.80;68.10;;;;;;6193428;23;20025;-78
2022/09/05 19:21:37;;;;;;;4.38;3.78;;;22.80;68.00;;;;;;6192634;23;20020;-78
2022/09/05 19:24:08;;;;;;;4.28;3.83;;;22.70;67.80;;;;;;6219088;23;20087;-78
2022/09/05 19:26:34;;;;;;;4.80;3.88;;;22.80;67.90;;;;;;6219261;23;20023;-79
2022/09/05 19:29:04;;;;;;;5.50;4.30;;;22.70;68.40;;;;;;6219060;23;20368;-79
2022/09/05 19:31:43;;;;;;;6.57;4.55;;;22.70;67.80;;;;;;6218877;23;20027;-79
2022/09/05 19:34:21;;;;;;;6.28;4.15;;;22.70;67.90;;;;;;6219089;23;20017;-78
2022/09/05 19:37:07;;;;;;;7.07;4.55;;;22.70;68.10;;;;;;6217733;23;20432;-79
2022/09/05 19:39:39;;;;;;;4.68;3.50;;;22.70;68.00;;;;;;6192882;23;20020;-77
2022/09/05 19:42:06;;;;;;;5.73;4.63;;;22.70;68.10;;;;;;6218761;23;20048;-79
2022/09/05 19:44:37;;;;;;;6.35;4.20;;;22.60;68.20;;;;;;6219290;23;20541;-78
2022/09/05 19:47:05;;;;;;;5.95;4.03;;;22.60;68.40;;;;;;6218899;23;20023;-77
2022/09/05 19:49:32;;;;;;;5.00;4.50;;;22.60;68.40;;;;;;6192946;23;20029;-78
2022/09/05 19:52:20;;;;;;;6.07;4.18;;;22.60;68.10;;;;;;6218811;23;20119;-78
2022/09/05 19:54:50;;;;;;;7.45;4.32;;;22.60;68.00;;;;;;6218104;23;20027;-79
2022/09/05 19:57:22;;;;;;;6.57;4.70;;;22.60;68.00;;;;;;6192196;23;20017;-77
2022/09/05 19:59:53;;;;;;;5.85;4.45;;;22.60;68.10;;;;;;6218639;23;20013;-74
2022/09/05 20:02:25;;;;;;;5.78;4.50;;;22.60;68.10;;;;;;6218957;23;20012;-75
2022/09/05 20:04:58;;;;;;;8.27;3.65;;;22.60;68.30;;;;;;6218757;23;20035;-75
2022/09/05 20:07:26;;;;;;;5.35;4.03;;;22.50;68.10;;;;;;6219242;23;20091;-78
2022/09/05 20:09:54;;;;;;;5.82;4.00;;;22.60;68.10;;;;;;6218778;23;20052;-75
2022/09/05 20:12:38;;;;;;;4.38;3.97;;;22.60;68.20;;;;;;6218818;23;20096;-73
2022/09/05 20:15:19;;;;;;;5.53;4.05;;;22.50;67.90;;;;;;6218655;23;20086;-74
2022/09/05 20:17:45;;;;;;;6.68;4.25;;;22.50;67.90;;;;;;6218754;23;20119;-74
2022/09/05 20:20:21;;;;;;;4.35;3.95;;;22.50;67.90;;;;;;6218146;23;20426;-78
2022/09/05 20:22:50;;;;;;;5.30;3.58;;;22.60;68.00;;;;;;6218643;23;20087;-73
2022/09/05 20:25:27;;;;;;;6.30;3.72;;;22.60;68.10;;;;;;6219106;23;20024;-73
2022/09/05 20:27:53;;;;;;;6.97;3.88;;;22.60;68.10;;;;;;6192685;23;20016;-74
2022/09/05 20:30:28;;;;;;;6.85;3.40;;;22.50;67.90;;;;;;6218563;23;20012;-74
2022/09/05 20:33:06;;;;;;;4.95;3.63;;;22.50;67.80;;;;;;6218169;23;20091;-74
2022/09/05 20:35:36;;;;;;;3.17;2.88;;;22.50;67.60;;;;;;6217690;23;20027;-75
2022/09/05 20:38:10;;;;;;;5.50;3.10;;;22.50;67.40;;;;;;6218380;23;20369;-74
2022/09/05 20:40:36;;;;;;;4.47;3.22;;;22.50;67.10;;;;;;6219259;23;20020;-74
2022/09/05 20:43:01;;;;;;;3.58;2.80;;;22.50;66.70;;;;;;6218433;23;20017;-74
2022/09/05 20:45:48;;;;;;;4.72;3.05;;;22.50;66.30;;;;;;6218112;23;20505;-74
2022/09/05 20:48:17;;;;;;;3.75;3.20;;;22.50;65.90;;;;;;6218163;23;20024;-75
2022/09/05 20:50:55;;;;;;;4.53;3.38;;;22.50;65.90;;;;;;6218408;23;20016;-73
2022/09/05 20:53:40;;;;;;;4.50;3.22;;;22.60;65.50;;;;;;6192454;23;20413;-74
2022/09/05 20:56:08;;;;;;;5.50;3.10;;;22.60;65.10;;;;;;6218537;23;20031;-75
2022/09/05 20:58:36;;;;;;;4.75;3.22;;;22.50;65.20;;;;;;6191544;23;20021;-74
2022/09/05 21:01:31;;;;;;;6.75;3.55;;;22.60;65.20;;;;;;6218387;23;20024;-75
2022/09/05 21:03:56;;;;;;;6.07;3.13;;;22.60;65.20;;;;;;6215405;23;20027;-76
2022/09/05 21:06:24;;;;;;;6.03;3.30;;;22.60;65.30;;;;;;6218986;23;20016;-73
2022/09/05 21:08:54;;;;;;;9.70;3.75;;;22.60;65.00;;;;;;6218549;23;20016;-74
2022/09/05 21:11:32;;;;;;;7.18;3.30;;;22.60;65.00;;;;;;6218859;23;20027;-73
2022/09/05 21:14:02;;;;;;;3.63;2.97;;;22.50;65.00;;;;;;6217417;23;20020;-76
2022/09/05 21:16:31;;;;;;;7.75;3.35;;;22.60;65.00;;;;;;6217982;23;20101;-78
2022/09/05 21:18:57;;;;;;;6.43;3.10;;;22.60;65.60;;;;;;6218461;23;20017;-74
2022/09/05 21:21:28;;;;;;;3.42;3.13;;;22.60;65.20;;;;;;6217861;23;20317;-75
2022/09/05 21:24:09;;;;;;;7.35;3.55;;;22.60;65.30;;;;;;6191525;23;20051;-75
2022/09/05 21:26:35;;;;;;;6.10;2.88;;;22.60;65.60;;;;;;6218124;23;20109;-75
2022/09/05 21:29:06;;;;;;;4.82;3.00;;;22.70;65.80;;;;;;6192953;23;20021;-74
2022/09/05 21:31:40;;;;;;;7.90;2.80;;;22.70;65.90;;;;;;6218007;23;20020;-75
2022/09/05 21:34:29;;;;;;;4.95;3.22;;;22.70;66.00;;;;;;6218041;23;20028;-74
2022/09/05 21:36:59;;;;;;;5.40;3.25;;;22.70;66.00;;;;;;6217928;23;20028;-75
2022/09/05 21:39:29;;;;;;;5.75;2.88;;;22.70;66.10;;;;;;6218149;23;20190;-75
2022/09/05 21:41:54;;;;;;;4.63;2.60;;;22.70;66.10;;;;;;6217913;23;20043;-76
2022/09/05 21:44:20;;;;;;;3.70;3.30;;;22.80;66.10;;;;;;6217888;23;20052;-75
2022/09/05 21:46:49;;;;;;;3.80;3.10;;;22.80;66.10;;;;;;6217710;23;20020;-75
2022/09/05 21:49:17;;;;;;;5.53;3.13;;;22.80;66.10;;;;;;6217903;23;20012;-77
2022/09/05 21:51:50;;;;;;;5.53;3.17;;;22.80;66.00;;;;;;6191669;23;20021;-79
